Time;durP1;ratioP1;P1;durP2;ratioP2;P2;SDS_P1;SDS_P2;PMS_P1;PMS_P2;Temp;Humidity;BMP_temperature;BMP_pressure;BME280_temperature;BME280_humidity;BME280_pressure;Samples;Min_cycle;Max_cycle;Signal;HPM_P1;HPM_P2
2024/03/27 00:01:49;;;;;;;;;;;;;;;;;;7598650;19;20506;-73
2024/03/27 00:04:20;;;;;;;;;;;;;;;;;;7591625;19;19926;-73
2024/03/27 00:06:52;;;;;;;;;;;;;;;;;;7599545;19;19957;-72
2024/03/27 00:09:23;;;;;;;;;;;;;;;;;;7600749;19;19940;-74
2024/03/27 00:11:54;;;;;;;;;;;;;;;;;;7590452;19;19923;-74
2024/03/27 00:14:26;;;;;;;;;;;;;;;;;;7594682;19;20042;-74
2024/03/27 00:16:57;;;;;;;;;;;;;;;;;;7596868;19;20373;-74
2024/03/27 00:19:29;;;;;;;;;;;;;;;;;;7600458;19;19926;-72
2024/03/27 00:22:01;;;;;;;;;;;;;;;;;;7601068;19;20844;-73
2024/03/27 00:24:32;;;;;;;;;;;;;;;;;;7585426;19;19934;-74
2024/03/27 00:27:03;;;;;;;;;;;;;;;;;;7567837;19;19927;-73
2024/03/27 00:29:35;;;;;;;;;;;;;;;;;;7589148;19;20061;-73
2024/03/27 00:32:06;;;;;;;;;;;;;;;;;;7592771;19;19919;-73
2024/03/27 00:34:38;;;;;;;;;;;;;;;;;;7597880;19;20226;-73
2024/03/27 00:37:09;;;;;;;;;;;;;;;;;;7588419;19;19915;-73
2024/03/27 00:39:41;;;;;;;;;;;;;;;;;;7587935;19;20261;-73
2024/03/27 00:42:12;;;;;;;;;;;;;;;;;;7587592;19;22345;-74
2024/03/27 00:44:44;;;;;;;;;;;;;;;;;;7598151;19;19922;-73
2024/03/27 00:47:16;;;;;;;;;;;;;;;;;;7571217;19;19937;-74
2024/03/27 00:49:47;;;;;;;;;;;;;;;;;;7591208;19;20285;-71
2024/03/27 00:52:19;;;;;;;;;;;;;;;;;;7601826;19;19922;-74
2024/03/27 00:54:50;;;;;;;;;;;;;;;;;;7601872;19;19930;-72
2024/03/27 00:57:22;;;;;;;;;;;;;;;;;;7597069;19;20268;-73
2024/03/27 00:59:55;;;;;;;;;;;;;;;;;;7591812;19;19942;-73
2024/03/27 01:02:27;;;;;;;;;;;;;;;;;;7601592;19;20017;-72
2024/03/27 01:04:58;;;;;;;;;;;;;;;;;;7597126;19;20498;-73
2024/03/27 01:07:29;;;;;;;;;;;;;;;;;;7601805;19;20834;-73
2024/03/27 01:10:01;;;;;;;;;;;;;;;;;;7590365;19;19930;-73
2024/03/27 01:12:32;;;;;;;;;;;;;;;;;;7594171;19;19950;-73
2024/03/27 01:15:03;;;;;;;;;;;;;;;;;;7583759;19;19919;-73
2024/03/27 01:17:35;;;;;;;;;;;;;;;;;;7593087;19;20650;-72
2024/03/27 01:20:09;;;;;;;;;;;;;;;;;;7590132;19;20548;-72
2024/03/27 01:22:40;;;;;;;;;;;;;;;;;;7597153;19;19923;-73
2024/03/27 01:25:13;;;;;;;;;;;;;;;;;;7585069;19;19936;-73
2024/03/27 01:27:44;;;;;;;;;;;;;;;;;;7593168;19;20571;-74
2024/03/27 01:30:15;;;;;;;;;;;;;;;;;;7588023;19;19922;-74
2024/03/27 01:32:47;;;;;;;;;;;;;;;;;;7603522;19;19919;-73
2024/03/27 01:35:18;;;;;;;;;;;;;;;;;;7584943;19;20423;-73
2024/03/27 01:37:49;;;;;;;;;;;;;;;;;;7587166;19;19922;-73
2024/03/27 01:40:21;;;;;;;;;;;;;;;;;;7593747;19;20002;-73
2024/03/27 01:42:52;;;;;;;;;;;;;;;;;;7591759;19;19919;-73
2024/03/27 01:45:23;;;;;;;;;;;;;;;;;;7592873;19;20010;-73
2024/03/27 01:47:55;;;;;;;;;;;;;;;;;;7595204;19;20250;-72
2024/03/27 01:50:28;;;;;;;;;;;;;;;;;;7593932;19;20425;-73
2024/03/27 01:53:00;;;;;;;;;;;;;;;;;;7581856;19;20325;-72
2024/03/27 01:55:31;;;;;;;;;;;;;;;;;;7597631;19;19927;-73
2024/03/27 01:58:03;;;;;;;;;;;;;;;;;;7589650;19;19926;-73
2024/03/27 02:00:34;;;;;;;;;;;;;;;;;;7584704;19;19980;-73
2024/03/27 02:03:06;;;;;;;;;;;;;;;;;;7591845;19;19935;-73
2024/03/27 02:05:37;;;;;;;;;;;;;;;;;;7591249;19;19925;-73
2024/03/27 02:08:14;;;;;;;;;;;;;;;;;;7597178;19;20460;-73
2024/03/27 02:10:46;;;;;;;;;;;;;;;;;;7600881;19;19915;-74
2024/03/27 02:13:17;;;;;;;;;;;;;;;;;;7587349;19;19935;-73
2024/03/27 02:15:48;;;;;;;;;;;;;;;;;;7585986;19;19965;-72
2024/03/27 02:18:20;;;;;;;;;;;;;;;;;;7592829;19;19919;-73
2024/03/27 02:20:52;;;;;;;;;;;;;;;;;;7592998;19;19934;-73
2024/03/27 02:23:23;;;;;;;;;;;;;;;;;;7594288;19;19937;-74
2024/03/27 02:25:54;;;;;;;;;;;;;;;;;;7586154;19;20459;-74
2024/03/27 02:28:26;;;;;;;;;;;;;;;;;;7596728;19;19931;-74
2024/03/27 02:30:57;;;;;;;;;;;;;;;;;;7583084;19;19942;-73
2024/03/27 02:33:29;;;;;;;;;;;;;;;;;;7598200;19;20265;-74
2024/03/27 02:36:00;;;;;;;;;;;;;;;;;;7585115;19;20357;-74
2024/03/27 02:38:31;;;;;;;;;;;;;;;;;;7595937;19;20526;-73
2024/03/27 02:41:03;;;;;;;;;;;;;;;;;;7586054;19;19923;-74
2024/03/27 02:43:34;;;;;;;;;;;;;;;;;;7594547;19;19919;-73
2024/03/27 02:46:06;;;;;;;;;;;;;;;;;;7581890;19;19926;-73
2024/03/27 02:48:37;;;;;;;;;;;;;;;;;;7592464;19;19918;-73
2024/03/27 02:51:09;;;;;;;;;;;;;;;;;;7585690;19;19922;-73
2024/03/27 02:53:40;;;;;;;;;;;;;;;;;;7598810;19;20870;-74
2024/03/27 02:56:12;;;;;;;;;;;;;;;;;;7579320;19;20002;-74
2024/03/27 02:58:44;;;;;;;;;;;;;;;;;;7587460;19;20833;-74
2024/03/27 03:01:15;;;;;;;;;;;;;;;;;;7583690;19;19922;-74
2024/03/27 03:03:46;;;;;;;;;;;;;;;;;;7602851;19;19932;-73
2024/03/27 03:06:18;;;;;;;;;;;;;;;;;;7592634;19;21390;-73
2024/03/27 03:08:49;;;;;;;;;;;;;;;;;;7598026;19;20407;-73
2024/03/27 03:11:20;;;;;;;;;;;;;;;;;;7580111;19;21316;-74
2024/03/27 03:13:52;;;;;;;;;;;;;;;;;;7583626;19;20559;-73
2024/03/27 03:16:24;;;;;;;;;;;;;;;;;;7588194;19;19919;-73
2024/03/27 03:18:55;;;;;;;;;;;;;;;;;;7602114;19;20471;-72
2024/03/27 03:21:26;;;;;;;;;;;;;;;;;;7592200;19;19930;-73
2024/03/27 03:23:59;;;;;;;;;;;;;;;;;;7598032;19;20333;-73
2024/03/27 03:26:30;;;;;;;;;;;;;;;;;;7599179;19;19917;-73
2024/03/27 03:29:01;;;;;;;;;;;;;;;;;;7591285;19;19934;-73
2024/03/27 03:31:33;;;;;;;;;;;;;;;;;;7603334;19;20288;-73
2024/03/27 03:34:04;;;;;;;;;;;;;;;;;;7588179;19;19922;-72
2024/03/27 03:36:35;;;;;;;;;;;;;;;;;;7599409;19;20456;-72
2024/03/27 03:39:07;;;;;;;;;;;;;;;;;;7589940;19;20314;-73
2024/03/27 03:41:38;;;;;;;;;;;;;;;;;;7569044;19;20574;-73
2024/03/27 03:44:10;;;;;;;;;;;;;;;;;;7577332;19;19930;-72
2024/03/27 03:46:41;;;;;;;;;;;;;;;;;;7574581;19;20006;-73
2024/03/27 03:49:13;;;;;;;;;;;;;;;;;;7582402;19;20781;-72
2024/03/27 03:51:44;;;;;;;;;;;;;;;;;;7563651;19;19918;-73
2024/03/27 03:54:16;;;;;;;;;;;;;;;;;;7576806;19;20571;-73
2024/03/27 03:56:47;;;;;;;;;;;;;;;;;;7582077;19;19933;-72
2024/03/27 03:59:19;;;;;;;;;;;;;;;;;;7587717;19;20963;-72
2024/03/27 04:01:50;;;;;;;;;;;;;;;;;;7597320;19;19922;-73
2024/03/27 04:04:21;;;;;;;;;;;;;;;;;;7596809;19;19930;-73
2024/03/27 04:06:53;;;;;;;;;;;;;;;;;;7590499;19;19923;-73
2024/03/27 04:09:24;;;;;;;;;;;;;;;;;;7582864;19;19921;-73
2024/03/27 04:11:55;;;;;;;;;;;;;;;;;;7592650;19;19925;-73
2024/03/27 04:14:27;;;;;;;;;;;;;;;;;;7594312;19;19918;-73
2024/03/27 04:16:59;;;;;;;;;;;;;;;;;;7600390;19;19923;-73
2024/03/27 04:19:30;;;;;;;;;;;;;;;;;;7595286;19;19922;-73
2024/03/27 04:22:02;;;;;;;;;;;;;;;;;;7607552;19;19918;-73
2024/03/27 04:24:34;;;;;;;;;;;;;;;;;;7598106;19;19922;-73
2024/03/27 04:27:05;;;;;;;;;;;;;;;;;;7589276;19;19928;-73
2024/03/27 04:29:36;;;;;;;;;;;;;;;;;;7586282;19;19938;-73
2024/03/27 04:32:08;;;;;;;;;;;;;;;;;;7590274;19;20615;-73
2024/03/27 04:34:40;;;;;;;;;;;;;;;;;;7604436;19;19927;-73
2024/03/27 04:37:11;;;;;;;;;;;;;;;;;;7600669;19;20667;-73
2024/03/27 04:39:43;;;;;;;;;;;;;;;;;;7585384;19;20571;-74
2024/03/27 04:42:14;;;;;;;;;;;;;;;;;;7586251;19;19923;-73
2024/03/27 04:44:45;;;;;;;;;;;;;;;;;;7601707;19;19926;-74
2024/03/27 04:47:17;;;;;;;;;;;;;;;;;;7587314;19;19971;-73
2024/03/27 04:49:48;;;;;;;;;;;;;;;;;;7602955;19;19922;-73
2024/03/27 04:52:20;;;;;;;;;;;;;;;;;;7594314;19;19979;-74
2024/03/27 04:54:51;;;;;;;;;;;;;;;;;;7593345;19;20851;-73
2024/03/27 04:57:22;;;;;;;;;;;;;;;;;;7596429;19;19954;-73
2024/03/27 04:59:54;;;;;;;;;;;;;;;;;;7604999;19;19923;-73
2024/03/27 05:02:25;;;;;;;;;;;;;;;;;;7593692;19;19915;-73
2024/03/27 05:04:57;;;;;;;;;;;;;;;;;;7596946;19;19926;-73
2024/03/27 05:07:28;;;;;;;;;;;;;;;;;;7571960;19;19926;-73
2024/03/27 05:10:00;;;;;;;;;;;;;;;;;;7591665;19;20684;-73
2024/03/27 05:12:31;;;;;;;;;;;;;;;;;;7597514;19;20316;-73
2024/03/27 05:15:02;;;;;;;;;;;;;;;;;;7587380;19;19926;-73
2024/03/27 05:17:34;;;;;;;;;;;;;;;;;;7593225;19;19919;-72
2024/03/27 05:20:06;;;;;;;;;;;;;;;;;;7595512;19;20887;-73
2024/03/27 05:22:38;;;;;;;;;;;;;;;;;;7591339;19;19915;-73
2024/03/27 05:25:09;;;;;;;;;;;;;;;;;;7581844;19;20346;-74
2024/03/27 05:27:41;;;;;;;;;;;;;;;;;;7591459;19;19937;-73
2024/03/27 05:30:12;;;;;;;;;;;;;;;;;;7593720;19;19919;-73
2024/03/27 05:32:44;;;;;;;;;;;;;;;;;;7615633;19;20586;-72
2024/03/27 05:35:15;;;;;;;;;;;;;;;;;;7605893;19;20982;-74
2024/03/27 05:37:47;;;;;;;;;;;;;;;;;;7605612;19;19915;-73
2024/03/27 05:40:18;;;;;;;;;;;;;;;;;;7604743;19;19927;-73
2024/03/27 05:42:50;;;;;;;;;;;;;;;;;;7610868;19;20957;-73
2024/03/27 05:45:21;;;;;;;;;;;;;;;;;;7589523;19;19915;-73
2024/03/27 05:47:53;;;;;;;;;;;;;;;;;;7608278;19;19919;-73
2024/03/27 05:50:25;;;;;;;;;;;;;;;;;;7605626;19;20557;-72
2024/03/27 05:52:56;;;;;;;;;;;;;;;;;;7609955;19;20492;-73
2024/03/27 05:55:28;;;;;;;;;;;;;;;;;;7602749;19;20503;-75
2024/03/27 05:57:59;;;;;;;;;;;;;;;;;;7614016;19;19914;-73
2024/03/27 06:00:33;;;;;;;;;;;;;;;;;;7601410;19;19930;-73
2024/03/27 06:03:05;;;;;;;;;;;;;;;;;;7611639;19;19986;-74
2024/03/27 06:05:36;;;;;;;;;;;;;;;;;;7598179;19;19927;-73
2024/03/27 06:08:08;;;;;;;;;;;;;;;;;;7604490;19;19922;-74
2024/03/27 06:10:39;;;;;;;;;;;;;;;;;;7596091;19;19933;-74
2024/03/27 06:13:11;;;;;;;;;;;;;;;;;;7600240;19;19930;-74
2024/03/27 06:15:43;;;;;;;;;;;;;;;;;;7588145;19;20263;-73
2024/03/27 06:18:15;;;;;;;;;;;;;;;;;;7588793;19;19923;-72
2024/03/27 06:20:46;;;;;;;;;;;;;;;;;;7596638;19;19978;-73
2024/03/27 06:23:18;;;;;;;;;;;;;;;;;;7589828;19;20507;-73
2024/03/27 06:25:49;;;;;;;;;;;;;;;;;;7601407;19;19927;-73
2024/03/27 06:28:21;;;;;;;;;;;;;;;;;;7602709;19;19914;-73
2024/03/27 06:30:52;;;;;;;;;;;;;;;;;;7610846;19;20527;-73
2024/03/27 06:33:24;;;;;;;;;;;;;;;;;;7603484;19;19944;-73
2024/03/27 06:35:56;;;;;;;;;;;;;;;;;;7599227;19;19922;-73
2024/03/27 06:38:27;;;;;;;;;;;;;;;;;;7595360;19;19946;-74
2024/03/27 06:40:59;;;;;;;;;;;;;;;;;;7607746;19;19918;-74
2024/03/27 06:43:30;;;;;;;;;;;;;;;;;;7591607;19;19919;-73
2024/03/27 06:46:02;;;;;;;;;;;;;;;;;;7596784;19;19918;-72
2024/03/27 06:48:43;;;;;;;;;;;;;;;;;;7596548;19;19919;-72
2024/03/27 06:51:14;;;;;;;;;;;;;;;;;;7607833;19;19957;-73
2024/03/27 06:53:46;;;;;;;;;;;;;;;;;;7602373;19;19927;-72
2024/03/27 06:56:18;;;;;;;;;;;;;;;;;;7609515;19;19923;-73
2024/03/27 06:58:49;;;;;;;;;;;;;;;;;;7597638;19;19922;-73
2024/03/27 07:01:21;;;;;;;;;;;;;;;;;;7606005;19;19944;-74
2024/03/27 07:03:52;;;;;;;;;;;;;;;;;;7606912;19;19939;-73
2024/03/27 07:06:24;;;;;;;;;;;;;;;;;;7586190;19;19931;-73
2024/03/27 07:08:55;;;;;;;;;;;;;;;;;;7601570;19;19986;-74
2024/03/27 07:11:27;;;;;;;;;;;;;;;;;;7589932;19;19964;-73
2024/03/27 07:13:59;;;;;;;;;;;;;;;;;;7576660;19;20713;-74
2024/03/27 07:16:30;;;;;;;;;;;;;;;;;;7518177;19;20499;-74
2024/03/27 07:19:04;;;;;;;;;;;;;;;;;;7572859;19;19945;-73
2024/03/27 07:21:36;;;;;;;;;;;;;;;;;;7595069;19;19934;-74
2024/03/27 07:24:08;;;;;;;;;;;;;;;;;;7605205;19;19986;-74
2024/03/27 07:26:39;;;;;;;;;;;;;;;;;;7587335;19;20583;-74
2024/03/27 07:29:10;;;;;;;;;;;;;;;;;;7603263;19;19926;-71
2024/03/27 07:31:42;;;;;;;;;;;;;;;;;;7599025;19;19915;-73
2024/03/27 07:34:13;;;;;;;;;;;;;;;;;;7602885;19;20906;-74
2024/03/27 07:36:44;;;;;;;;;;;;;;;;;;7598391;19;19929;-74
2024/03/27 07:39:17;;;;;;;;;;;;;;;;;;7594802;19;20280;-73
2024/03/27 07:41:48;;;;;;;;;;;;;;;;;;7581872;19;19939;-73
2024/03/27 07:44:20;;;;;;;;;;;;;;;;;;7584198;19;19919;-73
2024/03/27 07:46:52;;;;;;;;;;;;;;;;;;7585836;19;19964;-72
2024/03/27 07:49:24;;;;;;;;;;;;;;;;;;7584871;19;19930;-73
2024/03/27 07:51:55;;;;;;;;;;;;;;;;;;7582750;19;20429;-73
2024/03/27 07:54:27;;;;;;;;;;;;;;;;;;7582994;19;19922;-71
2024/03/27 07:56:58;;;;;;;;;;;;;;;;;;7567982;19;19915;-73
2024/03/27 07:59:33;;;;;;;;;;;;;;;;;;7601846;19;19919;-73
2024/03/27 08:02:05;;;;;;;;;;;;;;;;;;7598355;19;19926;-73
2024/03/27 08:04:36;;;;;;;;;;;;;;;;;;7595823;19;19915;-75
2024/03/27 08:07:07;;;;;;;;;;;;;;;;;;7608305;19;20867;-75
2024/03/27 08:09:39;;;;;;;;;;;;;;;;;;7600289;19;19959;-73
2024/03/27 08:12:10;;;;;;;;;;;;;;;;;;7611067;19;19915;-74
2024/03/27 08:14:42;;;;;;;;;;;;;;;;;;7591076;19;20925;-73
2024/03/27 08:17:13;;;;;;;;;;;;;;;;;;7611472;19;19925;-73
2024/03/27 08:19:45;;;;;;;;;;;;;;;;;;7596109;19;19918;-74
2024/03/27 08:22:17;;;;;;;;;;;;;;;;;;7577219;19;20499;-74
2024/03/27 08:24:51;;;;;;;;;;;;;;;;;;7528478;19;19937;-75
2024/03/27 08:27:23;;;;;;;;;;;;;;;;;;7556408;19;19932;-76
2024/03/27 08:29:54;;;;;;;;;;;;;;;;;;7558972;19;19922;-74
2024/03/27 08:32:26;;;;;;;;;;;;;;;;;;7561176;19;20014;-73
2024/03/27 08:34:58;;;;;;;;;;;;;;;;;;7566046;19;19954;-73
2024/03/27 08:37:29;;;;;;;;;;;;;;;;;;7573782;19;20005;-74
2024/03/27 08:40:05;;;;;;;;;;;;;;;;;;7569165;19;19946;-74
2024/03/27 08:42:37;;;;;;;;;;;;;;;;;;7554480;19;20918;-73
2024/03/27 08:45:08;;;;;;;;;;;;;;;;;;7549967;19;19923;-74
2024/03/27 08:47:40;;;;;;;;;;;;;;;;;;7558954;19;19921;-74
2024/03/27 08:50:14;;;;;;;;;;;;;;;;;;7566063;19;19932;-75
2024/03/27 08:52:45;;;;;;;;;;;;;;;;;;7564489;19;20647;-75
2024/03/27 08:55:17;;;;;;;;;;;;;;;;;;7561023;19;20886;-74
2024/03/27 08:57:49;;;;;;;;;;;;;;;;;;7564115;19;19927;-75
2024/03/27 09:00:20;;;;;;;;;;;;;;;;;;7564451;19;20248;-75
2024/03/27 09:02:52;;;;;;;;;;;;;;;;;;7557534;19;19919;-75
2024/03/27 09:05:24;;;;;;;;;;;;;;;;;;7555475;19;19942;-75
2024/03/27 09:07:55;;;;;;;;;;;;;;;;;;7560892;19;19932;-75
2024/03/27 09:10:27;;;;;;;;;;;;;;;;;;7552071;19;20717;-74
2024/03/27 09:12:59;;;;;;;;;;;;;;;;;;7561923;19;19922;-74
2024/03/27 09:15:31;;;;;;;;;;;;;;;;;;7548272;19;20095;-75
2024/03/27 09:18:03;;;;;;;;;;;;;;;;;;7562926;19;19922;-73
2024/03/27 09:20:35;;;;;;;;;;;;;;;;;;7564184;19;21515;-76
2024/03/27 09:23:07;;;;;;;;;;;;;;;;;;7556574;19;20483;-75
2024/03/27 09:25:39;;;;;;;;;;;;;;;;;;7556260;19;19921;-74
2024/03/27 09:28:10;;;;;;;;;;;;;;;;;;7560449;19;19930;-74
2024/03/27 09:30:42;;;;;;;;;;;;;;;;;;7556541;19;19925;-74
2024/03/27 09:33:14;;;;;;;;;;;;;;;;;;7553613;19;20283;-74
2024/03/27 09:35:45;;;;;;;;;;;;;;;;;;7552547;19;19940;-73
2024/03/27 09:38:17;;;;;;;;;;;;;;;;;;7557839;19;19926;-74
2024/03/27 09:40:48;;;;;;;;;;;;;;;;;;7555584;19;19922;-75
2024/03/27 09:43:23;;;;;;;;;;;;;;;;;;7557744;19;20476;-75
2024/03/27 09:45:55;;;;;;;;;;;;;;;;;;7558993;19;19986;-75
2024/03/27 09:48:27;;;;;;;;;;;;;;;;;;7552454;19;19927;-74
2024/03/27 09:50:59;;;;;;;;;;;;;;;;;;7533712;19;19923;-77
2024/03/27 09:53:31;;;;;;;;;;;;;;;;;;7563930;19;19923;-75
2024/03/27 09:56:03;;;;;;;;;;;;;;;;;;7543950;19;19914;-75
2024/03/27 09:58:34;;;;;;;;;;;;;;;;;;7557255;19;19929;-74
2024/03/27 10:01:06;;;;;;;;;;;;;;;;;;7558718;19;19915;-74
2024/03/27 10:03:38;;;;;;;;;;;;;;;;;;7552634;19;19919;-73
2024/03/27 10:06:10;;;;;;;;;;;;;;;;;;7575198;19;20459;-76
2024/03/27 10:08:41;;;;;;;;;;;;;;;;;;7550196;19;19929;-73
2024/03/27 10:11:15;;;;;;;;;;;;;;;;;;7555867;19;20333;-73
2024/03/27 10:13:47;;;;;;;;;;;;;;;;;;7530712;19;22145;-73
2024/03/27 10:16:20;;;;;;;;;;;;;;;;;;7489112;19;28743;-74
2024/03/27 10:18:51;;;;;;;;;;;;;;;;;;7512975;19;28361;-75
2024/03/27 10:21:23;;;;;;;;;;;;;;;;;;7484554;19;29003;-76
2024/03/27 10:23:54;;;;;;;;;;;;;;;;;;7531617;19;27667;-76
2024/03/27 10:26:26;;;;;;;;;;;;;;;;;;7487529;19;28942;-73
2024/03/27 10:28:58;;;;;;;;;;;;;;;;;;7495791;19;27885;-73
2024/03/27 10:31:30;;;;;;;;;;;;;;;;;;7522377;19;28715;-76
2024/03/27 10:34:02;;;;;;;;;;;;;;;;;;7487828;19;27849;-74
2024/03/27 10:36:34;;;;;;;;;;;;;;;;;;7531255;19;28124;-74
2024/03/27 10:39:07;;;;;;;;;;;;;;;;;;7517775;19;27498;-75
2024/03/27 10:41:39;;;;;;;;;;;;;;;;;;7506191;19;27352;-73
2024/03/27 10:44:11;;;;;;;;;;;;;;;;;;7525058;19;32189;-74
2024/03/27 10:46:43;;;;;;;;;;;;;;;;;;7514929;19;27870;-75
2024/03/27 10:49:15;;;;;;;;;;;;;;;;;;7520908;19;27531;-74
2024/03/27 10:51:47;;;;;;;;;;;;;;;;;;7537412;19;19927;-73
2024/03/27 10:54:18;;;;;;;;;;;;;;;;;;7538292;19;20338;-74
2024/03/27 10:56:50;;;;;;;;;;;;;;;;;;7528276;19;26918;-73
2024/03/27 10:59:22;;;;;;;;;;;;;;;;;;7517338;19;26846;-74
2024/03/27 11:01:54;;;;;;;;;;;;;;;;;;7512750;19;26516;-72
2024/03/27 11:04:26;;;;;;;;;;;;;;;;;;7537310;19;26680;-73
2024/03/27 11:06:57;;;;;;;;;;;;;;;;;;7524602;19;26811;-73
2024/03/27 11:09:30;;;;;;;;;;;;;;;;;;7545980;19;26172;-72
2024/03/27 11:12:01;;;;;;;;;;;;;;;;;;7536401;19;26365;-72
2024/03/27 11:14:33;;;;;;;;;;;;;;;;;;7541271;19;26394;-73
2024/03/27 11:17:04;;;;;;;;;;;;;;;;;;7527617;19;27533;-74
2024/03/27 11:19:36;;;;;;;;;;;;;;;;;;7518157;19;27785;-74
2024/03/27 11:22:08;;;;;;;;;;;;;;;;;;7478057;19;27693;-72
2024/03/27 11:24:40;;;;;;;;;;;;;;;;;;7500692;19;27291;-72
2024/03/27 11:27:11;;;;;;;;;;;;;;;;;;7497916;19;26983;-72
2024/03/27 11:29:43;;;;;;;;;;;;;;;;;;7512141;19;25993;-74
2024/03/27 11:32:15;;;;;;;;;;;;;;;;;;7510162;19;26054;-73
2024/03/27 11:34:47;;;;;;;;;;;;;;;;;;7508143;19;25782;-73
2024/03/27 11:37:19;;;;;;;;;;;;;;;;;;7529249;19;26389;-74
2024/03/27 11:39:51;;;;;;;;;;;;;;;;;;7497576;19;26029;-73
2024/03/27 11:42:22;;;;;;;;;;;;;;;;;;7521276;19;27238;-73
2024/03/27 11:44:54;;;;;;;;;;;;;;;;;;7513398;19;19972;-72
2024/03/27 11:47:25;;;;;;;;;;;;;;;;;;7487850;19;27056;-73
2024/03/27 11:49:57;;;;;;;;;;;;;;;;;;7488726;19;26859;-74
2024/03/27 11:52:30;;;;;;;;;;;;;;;;;;7493583;19;27250;-74
2024/03/27 11:55:01;;;;;;;;;;;;;;;;;;7505518;19;26916;-74
2024/03/27 11:57:33;;;;;;;;;;;;;;;;;;7496013;19;26903;-73
2024/03/27 12:00:05;;;;;;;;;;;;;;;;;;7487441;19;27750;-73
2024/03/27 12:02:37;;;;;;;;;;;;;;;;;;7508175;19;27289;-74
2024/03/27 12:05:09;;;;;;;;;;;;;;;;;;7477218;19;28015;-72
2024/03/27 12:07:40;;;;;;;;;;;;;;;;;;7509051;19;28298;-73
2024/03/27 12:10:15;;;;;;;;;;;;;;;;;;7474842;19;27624;-74
2024/03/27 12:12:50;;;;;;;;;;;;;;;;;;7512105;19;27946;-73
2024/03/27 12:15:22;;;;;;;;;;;;;;;;;;7522492;19;27042;-73
2024/03/27 12:17:54;;;;;;;;;;;;;;;;;;7508188;19;19923;-73
2024/03/27 12:20:25;;;;;;;;;;;;;;;;;;7503977;19;27536;-74
2024/03/27 12:22:57;;;;;;;;;;;;;;;;;;7511032;19;26631;-74
2024/03/27 12:25:49;;;;;;;;;;;;;;;;;;7509690;19;26921;-72
2024/03/27 12:28:21;;;;;;;;;;;;;;;;;;7492721;19;26529;-73
2024/03/27 12:30:53;;;;;;;;;;;;;;;;;;7483073;19;26569;-74
2024/03/27 12:33:25;;;;;;;;;;;;;;;;;;7487017;19;27086;-75
2024/03/27 12:35:57;;;;;;;;;;;;;;;;;;7489856;19;26442;-74
2024/03/27 12:38:28;;;;;;;;;;;;;;;;;;7503944;19;25995;-73
2024/03/27 12:41:01;;;;;;;;;;;;;;;;;;7501295;19;26840;-74
2024/03/27 12:43:34;;;;;;;;;;;;;;;;;;7505345;19;26387;-73
2024/03/27 12:46:09;;;;;;;;;;;;;;;;;;7481360;19;26351;-73
2024/03/27 12:48:40;;;;;;;;;;;;;;;;;;7546430;19;26173;-73
2024/03/27 12:51:12;;;;;;;;;;;;;;;;;;7515827;19;25474;-72
2024/03/27 12:53:44;;;;;;;;;;;;;;;;;;7505958;19;19945;-73
2024/03/27 12:56:15;;;;;;;;;;;;;;;;;;7512884;19;26320;-74
2024/03/27 12:58:47;;;;;;;;;;;;;;;;;;7478276;19;26499;-73
2024/03/27 13:01:19;;;;;;;;;;;;;;;;;;7516673;19;26476;-73
2024/03/27 13:03:51;;;;;;;;;;;;;;;;;;7509740;19;26450;-74
2024/03/27 13:06:23;;;;;;;;;;;;;;;;;;7488411;19;26374;-75
2024/03/27 13:08:55;;;;;;;;;;;;;;;;;;7505139;19;25632;-74
2024/03/27 13:11:27;;;;;;;;;;;;;;;;;;7507736;19;25440;-74
2024/03/27 13:13:58;;;;;;;;;;;;;;;;;;7500199;19;28003;-74
2024/03/27 13:16:31;;;;;;;;;;;;;;;;;;7476832;19;28924;-74
2024/03/27 13:19:03;;;;;;;;;;;;;;;;;;7484682;19;29091;-73
2024/03/27 13:21:35;;;;;;;;;;;;;;;;;;7497168;19;28201;-74
2024/03/27 13:24:08;;;;;;;;;;;;;;;;;;7456809;19;28723;-73
2024/03/27 13:26:39;;;;;;;;;;;;;;;;;;7484917;19;28378;-74
2024/03/27 13:29:11;;;;;;;;;;;;;;;;;;7499911;19;20346;-73
2024/03/27 13:31:43;;;;;;;;;;;;;;;;;;7470904;19;28836;-73
2024/03/27 13:34:15;;;;;;;;;;;;;;;;;;7492906;19;28864;-74
2024/03/27 13:36:47;;;;;;;;;;;;;;;;;;7488694;19;29891;-73
2024/03/27 13:39:19;;;;;;;;;;;;;;;;;;7476164;19;29003;-74
2024/03/27 13:41:51;;;;;;;;;;;;;;;;;;7494986;19;28401;-73
2024/03/27 13:44:23;;;;;;;;;;;;;;;;;;7475327;19;19948;-73
2024/03/27 13:46:54;;;;;;;;;;;;;;;;;;7500620;19;21082;-73
2024/03/27 13:49:26;;;;;;;;;;;;;;;;;;7490484;19;29261;-74
2024/03/27 13:51:58;;;;;;;;;;;;;;;;;;7455582;19;29554;-72
2024/03/27 13:54:30;;;;;;;;;;;;;;;;;;7471409;19;29214;-73
2024/03/27 13:57:03;;;;;;;;;;;;;;;;;;7481392;19;29785;-73
2024/03/27 13:59:35;;;;;;;;;;;;;;;;;;7493850;19;29857;-73
2024/03/27 14:02:07;;;;;;;;;;;;;;;;;;7467615;19;29541;-73
2024/03/27 14:04:39;;;;;;;;;;;;;;;;;;7513401;19;30032;-74
2024/03/27 14:07:11;;;;;;;;;;;;;;;;;;7459710;19;29929;-74
2024/03/27 14:09:42;;;;;;;;;;;;;;;;;;7514565;19;30070;-74
2024/03/27 14:12:14;;;;;;;;;;;;;;;;;;7461303;19;30475;-74
2024/03/27 14:14:46;;;;;;;;;;;;;;;;;;7498698;19;29482;-74
2024/03/27 14:17:19;;;;;;;;;;;;;;;;;;7463311;19;29666;-74
2024/03/27 14:19:52;;;;;;;;;;;;;;;;;;7478806;19;29984;-73
2024/03/27 14:22:23;;;;;;;;;;;;;;;;;;7473498;19;30012;-73
2024/03/27 14:24:55;;;;;;;;;;;;;;;;;;7490374;19;30250;-73
2024/03/27 14:27:27;;;;;;;;;;;;;;;;;;7512098;19;19937;-73
2024/03/27 14:29:58;;;;;;;;;;;;;;;;;;7519786;19;29019;-74
2024/03/27 14:32:31;;;;;;;;;;;;;;;;;;7513588;19;28158;-74
2024/03/27 14:35:03;;;;;;;;;;;;;;;;;;7479123;19;28067;-73
2024/03/27 14:37:35;;;;;;;;;;;;;;;;;;7511099;19;29105;-72
2024/03/27 14:40:07;;;;;;;;;;;;;;;;;;7513766;19;28062;-72
2024/03/27 14:42:39;;;;;;;;;;;;;;;;;;7518785;19;29173;-73
2024/03/27 14:45:11;;;;;;;;;;;;;;;;;;7510814;19;27871;-72
2024/03/27 14:47:42;;;;;;;;;;;;;;;;;;7504045;19;104958;-73
2024/03/27 14:50:14;;;;;;;;;;;;;;;;;;7498606;19;28431;-73
2024/03/27 14:52:46;;;;;;;;;;;;;;;;;;7481935;19;27856;-74
2024/03/27 14:55:18;;;;;;;;;;;;;;;;;;7480320;19;28880;-73
2024/03/27 14:57:50;;;;;;;;;;;;;;;;;;7499701;19;28224;-74
2024/03/27 15:00:22;;;;;;;;;;;;;;;;;;7476239;19;28597;-74
2024/03/27 15:02:53;;;;;;;;;;;;;;;;;;7506985;19;27168;-73
2024/03/27 15:05:25;;;;;;;;;;;;;;;;;;7513834;19;20662;-74
2024/03/27 15:07:56;;;;;;;;;;;;;;;;;;7492409;19;19923;-73
2024/03/27 15:10:28;;;;;;;;;;;;;;;;;;7495856;19;26355;-74
2024/03/27 15:13:01;;;;;;;;;;;;;;;;;;7472042;19;30765;-74
2024/03/27 15:15:33;;;;;;;;;;;;;;;;;;7486194;19;30514;-73
2024/03/27 15:18:04;;;;;;;;;;;;;;;;;;7471526;19;26603;-74
2024/03/27 15:20:36;;;;;;;;;;;;;;;;;;7491448;19;26458;-73
2024/03/27 15:23:08;;;;;;;;;;;;;;;;;;7472592;19;26914;-73
2024/03/27 15:25:40;;;;;;;;;;;;;;;;;;7470141;19;27036;-73
2024/03/27 15:28:12;;;;;;;;;;;;;;;;;;7478731;19;27417;-73
2024/03/27 15:30:44;;;;;;;;;;;;;;;;;;7448473;19;26624;-73
2024/03/27 15:33:16;;;;;;;;;;;;;;;;;;7452770;19;26430;-73
2024/03/27 15:35:48;;;;;;;;;;;;;;;;;;7505522;19;26499;-74
2024/03/27 15:38:21;;;;;;;;;;;;;;;;;;7490276;19;27027;-73
2024/03/27 15:40:53;;;;;;;;;;;;;;;;;;7493629;19;27498;-73
2024/03/27 15:43:24;;;;;;;;;;;;;;;;;;7496457;19;26725;-73
2024/03/27 15:45:57;;;;;;;;;;;;;;;;;;7486793;19;26325;-73
2024/03/27 15:48:28;;;;;;;;;;;;;;;;;;7495839;19;26414;-74
2024/03/27 15:51:00;;;;;;;;;;;;;;;;;;7502969;19;28181;-73
2024/03/27 15:53:31;;;;;;;;;;;;;;;;;;7495604;19;25779;-73
2024/03/27 15:56:03;;;;;;;;;;;;;;;;;;7516601;19;19914;-72
2024/03/27 15:58:35;;;;;;;;;;;;;;;;;;7519349;19;20014;-74
2024/03/27 16:01:06;;;;;;;;;;;;;;;;;;7515138;19;21875;-74
2024/03/27 16:03:38;;;;;;;;;;;;;;;;;;7529433;19;21473;-73
2024/03/27 16:06:10;;;;;;;;;;;;;;;;;;7523419;19;19919;-74
2024/03/27 16:08:41;;;;;;;;;;;;;;;;;;7497747;19;21174;-73
2024/03/27 16:11:13;;;;;;;;;;;;;;;;;;7481404;19;30253;-74
2024/03/27 16:13:44;;;;;;;;;;;;;;;;;;7517348;19;26994;-75
2024/03/27 16:16:16;;;;;;;;;;;;;;;;;;7541326;19;20757;-73
2024/03/27 16:18:48;;;;;;;;;;;;;;;;;;7538882;19;26001;-73
2024/03/27 16:21:20;;;;;;;;;;;;;;;;;;7519463;19;26125;-73
2024/03/27 16:23:51;;;;;;;;;;;;;;;;;;7515125;19;26009;-73
2024/03/27 16:26:23;;;;;;;;;;;;;;;;;;7523658;19;26073;-73
2024/03/27 16:28:55;;;;;;;;;;;;;;;;;;7534070;19;25911;-73
2024/03/27 16:31:27;;;;;;;;;;;;;;;;;;7533545;19;25982;-71
2024/03/27 16:33:58;;;;;;;;;;;;;;;;;;7537595;19;25762;-71
2024/03/27 16:36:30;;;;;;;;;;;;;;;;;;7543778;19;20426;-72
2024/03/27 16:39:01;;;;;;;;;;;;;;;;;;7536725;19;157119;-73
2024/03/27 16:41:33;;;;;;;;;;;;;;;;;;7560729;19;19911;-71
2024/03/27 16:44:05;;;;;;;;;;;;;;;;;;7533737;19;24355;-71
2024/03/27 16:46:37;;;;;;;;;;;;;;;;;;7535569;19;23979;-71
2024/03/27 16:49:08;;;;;;;;;;;;;;;;;;7541960;19;19919;-72
2024/03/27 16:51:40;;;;;;;;;;;;;;;;;;7499403;19;19926;-71
2024/03/27 16:54:12;;;;;;;;;;;;;;;;;;7516451;19;24773;-74
2024/03/27 16:56:44;;;;;;;;;;;;;;;;;;7484109;19;26310;-73
2024/03/27 16:59:16;;;;;;;;;;;;;;;;;;7480865;19;25280;-73
2024/03/27 17:01:49;;;;;;;;;;;;;;;;;;7500843;19;25615;-73
2024/03/27 17:04:20;;;;;;;;;;;;;;;;;;7487939;19;26301;-73
2024/03/27 17:06:52;;;;;;;;;;;;;;;;;;7500271;19;26621;-71
2024/03/27 17:09:24;;;;;;;;;;;;;;;;;;7479771;19;25853;-73
2024/03/27 17:11:56;;;;;;;;;;;;;;;;;;7455883;19;24950;-75
2024/03/27 17:14:29;;;;;;;;;;;;;;;;;;7515235;19;25995;-74
2024/03/27 17:17:04;;;;;;;;;;;;;;;;;;7493723;19;105794;-74